createdAt,value
2023-01-27T00:00:23.468Z,-0.109558
2023-01-27T00:01:33.186Z,-0.109558
2023-01-27T00:02:41.867Z,-0.099487
2023-01-27T00:03:51.552Z,-0.059204
2023-01-27T00:05:01.183Z,-0.028992
2023-01-27T00:06:08.829Z,-0.028992
2023-01-27T00:07:17.525Z,-0.028992
2023-01-27T00:08:27.186Z,0.001221
2023-01-27T00:09:35.879Z,-0.018921
2023-01-27T00:10:45.609Z,-0.018921
2023-01-27T00:11:54.269Z,0.011292
2023-01-27T00:13:01.944Z,0.001221
2023-01-27T00:14:11.640Z,-0.018921
2023-01-27T00:15:21.301Z,-0.018921
2023-01-27T00:16:28.991Z,-0.018921
2023-01-27T00:17:38.668Z,-0.018921
2023-01-27T00:18:48.336Z,-0.018921
2023-01-27T00:19:58.066Z,0.001221
2023-01-27T00:21:06.735Z,0.001221
2023-01-27T00:22:14.384Z,0.001221
2023-01-27T00:23:24.046Z,-0.018921
2023-01-27T00:24:31.758Z,-0.018921
2023-01-27T00:25:41.436Z,-0.028992
2023-01-27T00:26:51.117Z,-0.028992
2023-01-27T00:28:00.795Z,-0.059204
2023-01-27T00:29:10.473Z,-0.028992
2023-01-27T00:30:19.143Z,-0.028992
2023-01-27T00:31:26.829Z,-0.069275
2023-01-27T00:32:36.453Z,-0.028992
2023-01-27T00:33:44.129Z,-0.028992
2023-01-27T00:34:53.845Z,-0.028992
2023-01-27T00:36:03.516Z,-0.069275
2023-01-27T00:37:11.248Z,-0.069275
2023-01-27T00:38:20.895Z,-0.099487
2023-01-27T00:39:28.556Z,-0.099487
2023-01-27T00:40:38.244Z,-0.109558
2023-01-27T00:41:46.913Z,-0.1297
2023-01-27T00:42:55.643Z,-0.109558
2023-01-27T00:44:05.316Z,-0.1297
2023-01-27T00:45:12.985Z,-0.109558
2023-01-27T00:46:21.744Z,-0.099487
2023-01-27T00:47:31.347Z,-0.1297
2023-01-27T00:48:40.026Z,-0.099487
2023-01-27T00:49:49.691Z,-0.079346
2023-01-27T00:50:59.399Z,-0.099487
2023-01-27T00:52:07.077Z,-0.1297
2023-01-27T00:53:16.732Z,-0.149841
2023-01-27T00:54:24.462Z,-0.149841
2023-01-27T00:55:34.130Z,-0.169983
2023-01-27T00:56:42.808Z,-0.139771
2023-01-27T00:57:51.469Z,-0.149841
2023-01-27T00:59:01.143Z,-0.109558
2023-01-27T01:00:09.889Z,-0.1297
2023-01-27T01:01:19.607Z,-0.079346
2023-01-27T01:02:29.347Z,-0.099487
2023-01-27T01:03:38.949Z,-0.069275
2023-01-27T01:04:47.664Z,-0.079346
2023-01-27T01:05:57.367Z,-0.028992
2023-01-27T01:07:06.055Z,-0.079346
2023-01-27T01:08:15.721Z,-0.099487
2023-01-27T01:09:24.402Z,-0.109558
2023-01-27T01:10:33.055Z,-0.149841
2023-01-27T01:11:42.743Z,-0.149841
2023-01-27T01:12:50.436Z,-0.109558
2023-01-27T01:14:00.127Z,-0.099487
2023-01-27T01:15:09.773Z,-0.109558
2023-01-27T01:16:18.457Z,-0.1297
2023-01-27T01:17:28.177Z,-0.139771
2023-01-27T01:18:36.879Z,-0.149841
2023-01-27T01:19:44.567Z,-0.180054
2023-01-27T01:20:54.268Z,-0.250549
2023-01-27T01:22:04.802Z,-0.280762
2023-01-27T01:23:11.628Z,-0.280762
2023-01-27T01:24:21.405Z,-0.26062
2023-01-27T01:25:29.009Z,-0.26062
2023-01-27T01:26:38.755Z,-0.290833
2023-01-27T01:27:47.448Z,-0.290833
2023-01-27T01:28:56.146Z,-0.310974
2023-01-27T01:30:05.809Z,-0.341187
2023-01-27T01:31:14.565Z,-0.341187
2023-01-27T01:32:24.155Z,-0.351257
2023-01-27T01:33:33.858Z,-0.351257
2023-01-27T01:34:42.571Z,-0.361328
2023-01-27T01:35:52.228Z,-0.38147
2023-01-27T01:37:00.902Z,-0.38147
2023-01-27T01:38:09.569Z,-0.411682
2023-01-27T01:39:19.236Z,-0.411682
2023-01-27T01:40:27.914Z,-0.361328
2023-01-27T01:41:37.567Z,-0.361328
2023-01-27T01:42:47.240Z,-0.341187
2023-01-27T01:43:55.919Z,-0.341187
2023-01-27T01:45:05.576Z,-0.321045
2023-01-27T01:46:14.362Z,-0.351257
2023-01-27T01:47:23.997Z,-0.351257
2023-01-27T01:48:33.666Z,-0.351257
2023-01-27T01:49:41.359Z,-0.341187
2023-01-27T01:50:50.047Z,-0.351257
2023-01-27T01:51:59.705Z,-0.38147
2023-01-27T01:53:08.381Z,-0.361328
2023-01-27T01:54:18.057Z,-0.391541
2023-01-27T01:55:26.724Z,-0.411682
2023-01-27T01:56:36.414Z,-0.411682
2023-01-27T01:57:46.154Z,-0.38147
2023-01-27T01:58:54.832Z,-0.361328
2023-01-27T02:00:04.507Z,-0.361328
2023-01-27T02:01:14.290Z,-0.351257
2023-01-27T02:02:23.752Z,-0.341187
2023-01-27T02:03:32.556Z,-0.341187
2023-01-27T02:04:42.233Z,-0.310974
2023-01-27T02:05:50.899Z,-0.321045
2023-01-27T02:07:00.624Z,-0.290833
2023-01-27T02:08:10.240Z,-0.280762
2023-01-27T02:09:18.939Z,-0.250549
2023-01-27T02:10:28.672Z,-0.230408
2023-01-27T02:17:13.069Z,-0.149841
2023-01-27T02:18:22.697Z,-0.1297
2023-01-27T02:19:32.384Z,-0.149841
2023-01-27T02:20:41.081Z,-0.169983
2023-01-27T02:21:50.739Z,-0.169983
2023-01-27T02:22:59.563Z,-0.149841
2023-01-27T02:24:07.089Z,-0.169983
2023-01-27T02:25:16.735Z,-0.180054
2023-01-27T02:26:25.395Z,-0.180054
2023-01-27T02:27:34.093Z,-0.180054
2023-01-27T02:28:43.775Z,-0.200195
2023-01-27T02:29:52.435Z,-0.180054
2023-01-27T02:31:02.209Z,-0.169983
2023-01-27T02:32:10.769Z,-0.1297
2023-01-27T02:33:18.450Z,-0.1297
2023-01-27T02:34:28.137Z,-0.079346
2023-01-27T02:35:36.799Z,-0.069275
2023-01-27T02:36:45.463Z,-0.079346
2023-01-27T02:37:55.149Z,-0.099487
2023-01-27T02:39:04.022Z,-0.079346
2023-01-27T02:40:12.512Z,-0.079346
2023-01-27T02:41:22.185Z,-0.109558
2023-01-27T02:42:31.883Z,-0.1297
2023-01-27T02:43:40.565Z,-0.1297
2023-01-27T02:44:49.256Z,-0.1297
2023-01-27T02:45:57.953Z,-0.109558
2023-01-27T02:47:07.605Z,-0.1297
2023-01-27T02:48:16.258Z,-0.109558
2023-01-27T02:49:24.942Z,-0.1297
2023-01-27T02:50:34.630Z,-0.109558
2023-01-27T02:51:43.294Z,-0.1297
2023-01-27T02:52:52.957Z,-0.230408
2023-01-27T02:54:02.640Z,-0.341187
2023-01-27T02:55:11.609Z,-0.361328
2023-01-27T02:56:20.984Z,-0.38147
2023-01-27T02:57:29.635Z,-0.38147
2023-01-27T02:58:37.311Z,-0.38147
2023-01-27T02:59:46.983Z,-0.351257
2023-01-27T03:00:55.649Z,-0.321045
2023-01-27T03:02:04.390Z,-0.290833
2023-01-27T03:03:14.040Z,-0.250549
2023-01-27T03:04:22.728Z,-0.250549
2023-01-27T03:05:32.387Z,-0.200195
2023-01-27T03:06:42.115Z,-0.180054
2023-01-27T03:07:49.791Z,-0.169983
2023-01-27T03:08:59.490Z,-0.180054
2023-01-27T03:10:07.159Z,-0.230408
2023-01-27T03:11:16.846Z,-0.210266
2023-01-27T03:12:26.501Z,-0.200195
2023-01-27T03:13:34.181Z,-0.200195
2023-01-27T03:14:43.868Z,-0.210266
2023-01-27T03:15:52.617Z,-0.250549
2023-01-27T03:17:01.245Z,-0.230408
2023-01-27T03:18:10.927Z,-0.230408
2023-01-27T03:19:18.709Z,-0.210266
2023-01-27T03:20:27.369Z,-0.200195
2023-01-27T03:21:37.028Z,-0.200195
2023-01-27T03:22:45.691Z,-0.169983
2023-01-27T03:23:55.384Z,-0.169983
2023-01-27T03:25:05.082Z,-0.1297
2023-01-27T03:26:13.753Z,-0.109558
2023-01-27T03:27:23.561Z,-0.099487
2023-01-27T03:28:33.267Z,-0.099487
2023-01-27T03:29:42.926Z,-0.099487
2023-01-27T03:30:52.732Z,-0.079346
2023-01-27T03:32:00.347Z,-0.069275
2023-01-27T03:33:10.017Z,-0.069275
2023-01-27T03:34:19.702Z,-0.028992
2023-01-27T03:35:27.362Z,-0.059204
2023-01-27T03:36:37.051Z,-0.069275
2023-01-27T03:37:44.770Z,-0.099487
2023-01-27T03:38:54.554Z,-0.109558
2023-01-27T03:40:04.239Z,-0.139771
2023-01-27T03:41:11.912Z,-0.149841
2023-01-27T03:42:21.626Z,-0.169983
2023-01-27T03:43:30.358Z,-0.200195
2023-01-27T03:44:39.043Z,-0.200195
2023-01-27T03:45:48.771Z,-0.180054
2023-01-27T03:46:56.429Z,-0.230408
2023-01-27T03:48:06.135Z,-0.250549
2023-01-27T03:49:15.835Z,-0.26062
2023-01-27T03:50:24.498Z,-0.290833
2023-01-27T03:51:34.391Z,-0.310974
2023-01-27T03:52:43.136Z,-0.310974
2023-01-27T03:53:50.894Z,-0.321045
2023-01-27T03:55:00.730Z,-0.351257
2023-01-27T03:56:08.439Z,-0.351257
2023-01-27T03:57:17.123Z,-0.38147
2023-01-27T03:58:26.797Z,-0.391541
2023-01-27T03:59:34.502Z,-0.391541
2023-01-27T04:00:44.171Z,-0.431824
2023-01-27T04:01:54.022Z,-0.391541
2023-01-27T04:03:01.761Z,-0.361328
2023-01-27T04:04:11.333Z,-0.351257
2023-01-27T04:05:19.040Z,-0.351257
2023-01-27T04:06:28.691Z,-0.351257
2023-01-27T04:07:37.389Z,-0.351257
2023-01-27T04:08:46.052Z,-0.361328
2023-01-27T04:09:55.781Z,-0.431824
2023-01-27T04:11:04.501Z,-0.431824
2023-01-27T04:12:12.140Z,-0.431824
2023-01-27T04:13:21.828Z,-0.391541
2023-01-27T04:14:30.516Z,-0.38147
2023-01-27T04:15:39.234Z,-0.391541
2023-01-27T04:16:48.909Z,-0.441895
2023-01-27T04:17:56.584Z,-0.502319
2023-01-27T04:19:06.286Z,-0.492249
2023-01-27T04:20:14.933Z,-0.502319
2023-01-27T04:21:22.662Z,-0.522461
2023-01-27T04:22:32.349Z,-0.502319
2023-01-27T04:23:41.024Z,-0.492249
2023-01-27T04:24:50.686Z,-0.502319
2023-01-27T04:26:00.360Z,-0.522461
2023-01-27T04:27:09.024Z,-0.572815
2023-01-27T04:28:25.652Z,-0.542603
2023-01-27T04:29:28.375Z,-0.532532
2023-01-27T04:30:37.074Z,-0.542603
2023-01-27T04:31:46.845Z,-0.542603
2023-01-27T04:32:56.496Z,-0.562744
2023-01-27T04:34:06.232Z,-0.542603
2023-01-27T04:35:15.911Z,-0.562744
2023-01-27T04:36:26.544Z,-0.542603
2023-01-27T04:37:35.222Z,-0.562744
2023-01-27T04:38:44.905Z,-0.592957
2023-01-27T04:39:53.601Z,-0.592957
2023-01-27T04:41:03.306Z,-0.613098
2023-01-27T04:42:13.029Z,-0.623169
2023-01-27T04:43:21.687Z,-0.623169
2023-01-27T04:44:31.403Z,-0.613098
2023-01-27T04:45:40.173Z,-0.643311
2023-01-27T04:46:47.861Z,-0.653381
2023-01-27T04:47:57.592Z,-0.673523
2023-01-27T04:49:07.292Z,-0.703735
2023-01-27T04:50:16.954Z,-0.653381
2023-01-27T04:51:26.684Z,-0.643311
2023-01-27T04:52:34.529Z,-0.623169
2023-01-27T04:53:44.102Z,-0.592957
2023-01-27T04:54:52.765Z,-0.613098
2023-01-27T04:56:01.489Z,-0.623169
2023-01-27T04:57:11.187Z,-0.643311
2023-01-27T04:58:18.837Z,-0.643311
2023-01-27T04:59:27.526Z,-0.623169
2023-01-27T05:00:37.207Z,-0.653381
2023-01-27T05:01:45.920Z,-0.673523
2023-01-27T05:02:55.674Z,-0.653381
2023-01-27T05:04:04.440Z,-0.653381
2023-01-27T05:05:12.326Z,-0.653381
2023-01-27T05:06:21.691Z,-0.683594
2023-01-27T05:07:31.305Z,-0.683594
2023-01-27T05:08:38.135Z,-0.703735
2023-01-27T05:09:47.842Z,-0.703735
2023-01-27T05:10:55.541Z,-0.703735
2023-01-27T05:12:05.262Z,-0.703735
2023-01-27T05:13:15.014Z,-0.683594
2023-01-27T05:14:24.745Z,-0.683594
2023-01-27T05:15:34.477Z,-0.683594
2023-01-27T05:16:43.226Z,-0.673523
2023-01-27T05:17:52.786Z,-0.673523
2023-01-27T05:19:01.459Z,-0.683594
2023-01-27T05:20:09.186Z,-0.673523
2023-01-27T05:21:18.885Z,-0.673523
2023-01-27T05:22:27.556Z,-0.653381
2023-01-27T05:23:35.236Z,-0.653381
2023-01-27T05:24:45.903Z,-0.673523
2023-01-27T05:25:53.603Z,-0.673523
2023-01-27T05:27:02.283Z,-0.643311
2023-01-27T05:28:11.981Z,-0.592957
2023-01-27T05:29:21.696Z,-0.613098
2023-01-27T05:30:31.414Z,-0.623169
2023-01-27T05:31:40.247Z,-0.643311
2023-01-27T05:32:48.789Z,-0.643311
2023-01-27T05:33:58.567Z,-0.643311
2023-01-27T05:35:06.260Z,-0.643311
2023-01-27T05:36:14.942Z,-0.613098
2023-01-27T05:37:24.637Z,-0.592957
2023-01-27T05:38:32.312Z,-0.592957
2023-01-27T05:39:42.008Z,-0.592957
2023-01-27T05:40:50.667Z,-0.592957
2023-01-27T05:41:59.345Z,-0.572815
2023-01-27T05:43:09.044Z,-0.572815
2023-01-27T05:44:16.727Z,-0.532532
2023-01-27T05:45:25.407Z,-0.522461
2023-01-27T05:46:35.143Z,-0.522461
2023-01-27T05:47:43.759Z,-0.542603
2023-01-27T05:48:53.469Z,-0.542603
2023-01-27T05:50:02.116Z,-0.532532
2023-01-27T05:51:12.903Z,-0.532532
2023-01-27T05:52:20.495Z,-0.492249
2023-01-27T05:53:30.162Z,-0.502319
2023-01-27T05:54:38.856Z,-0.472107
2023-01-27T05:55:48.582Z,-0.462036
2023-01-27T05:56:57.246Z,-0.462036
2023-01-27T05:58:06.939Z,-0.472107
2023-01-27T05:59:15.611Z,-0.502319
2023-01-27T06:00:24.362Z,-0.472107
2023-01-27T06:01:34.091Z,-0.462036
2023-01-27T06:02:41.712Z,-0.472107
2023-01-27T06:03:50.373Z,-0.462036
2023-01-27T06:05:00.128Z,-0.462036
2023-01-27T06:06:08.868Z,-0.462036
2023-01-27T06:07:18.545Z,-0.462036
2023-01-27T06:08:27.315Z,-0.472107
2023-01-27T06:09:35.926Z,-0.492249
2023-01-27T06:10:45.610Z,-0.462036
2023-01-27T06:11:55.358Z,-0.492249
2023-01-27T06:13:04.008Z,-0.492249
2023-01-27T06:14:13.726Z,-0.492249
2023-01-27T06:15:22.376Z,-0.472107
2023-01-27T06:16:32.120Z,-0.462036
2023-01-27T06:17:40.752Z,-0.441895
2023-01-27T06:18:51.394Z,-0.462036
2023-01-27T06:20:01.159Z,-0.441895
2023-01-27T06:21:09.867Z,-0.441895
2023-01-27T06:22:18.632Z,-0.431824
2023-01-27T06:23:28.345Z,-0.472107
2023-01-27T06:24:36.073Z,-0.441895
2023-01-27T06:25:45.831Z,-0.472107
2023-01-27T06:26:54.491Z,-0.472107
2023-01-27T06:28:04.201Z,-0.492249
2023-01-27T06:29:14.893Z,-0.462036
2023-01-27T06:30:23.596Z,-0.441895
2023-01-27T06:31:33.298Z,-0.411682
2023-01-27T06:32:42.984Z,-0.391541
2023-01-27T06:33:51.693Z,-0.38147
2023-01-27T06:35:00.413Z,-0.38147
2023-01-27T06:36:10.129Z,-0.361328
2023-01-27T06:37:18.902Z,-0.361328
2023-01-27T06:38:27.560Z,-0.351257
2023-01-27T06:39:37.272Z,-0.351257
2023-01-27T06:40:45.991Z,-0.341187
2023-01-27T06:41:54.655Z,-0.351257
2023-01-27T06:43:04.319Z,-0.341187
2023-01-27T06:44:11.994Z,-0.321045
2023-01-27T06:45:21.831Z,-0.321045
2023-01-27T06:46:30.557Z,-0.321045
2023-01-27T06:47:39.319Z,-0.341187
2023-01-27T06:48:48.049Z,-0.321045
2023-01-27T06:49:57.767Z,-0.321045
2023-01-27T06:51:07.435Z,-0.321045
2023-01-27T06:52:17.177Z,-0.321045
2023-01-27T06:53:24.865Z,-0.341187
2023-01-27T06:54:34.553Z,-0.321045
2023-01-27T06:55:43.295Z,-0.310974
2023-01-27T06:56:53.001Z,-0.290833
2023-01-27T06:58:02.748Z,-0.310974
2023-01-27T06:59:11.445Z,-0.290833
2023-01-27T07:00:21.184Z,-0.290833
2023-01-27T07:01:29.965Z,-0.310974
2023-01-27T07:02:37.576Z,-0.280762
2023-01-27T07:03:47.291Z,-0.26062
2023-01-27T07:04:54.980Z,-0.26062
2023-01-27T07:06:04.669Z,-0.280762
2023-01-27T07:07:13.383Z,-0.26062
2023-01-27T07:08:21.085Z,-0.26062
2023-01-27T07:09:33.606Z,-0.290833
2023-01-27T07:10:41.393Z,-0.290833
2023-01-27T07:11:49.106Z,-0.280762
2023-01-27T07:12:58.824Z,-0.280762
2023-01-27T07:14:09.635Z,-0.26062
2023-01-27T07:15:16.239Z,-0.26062
2023-01-27T07:16:25.965Z,-0.230408
2023-01-27T07:17:35.607Z,-0.250549
2023-01-27T07:18:45.311Z,-0.250549
2023-01-27T07:19:55.012Z,-0.250549
2023-01-27T07:21:03.744Z,-0.26062
2023-01-27T07:22:13.437Z,-0.250549
2023-01-27T07:23:21.137Z,-0.26062
2023-01-27T07:24:30.018Z,-0.250549
2023-01-27T07:25:39.716Z,-0.26062
2023-01-27T07:26:48.426Z,-0.280762
2023-01-27T07:27:58.157Z,-0.26062
2023-01-27T07:29:07.888Z,-0.250549
2023-01-27T07:30:17.556Z,-0.210266
2023-01-27T07:31:27.385Z,-0.230408
2023-01-27T07:32:35.989Z,-0.210266
2023-01-27T07:33:45.725Z,-0.210266
2023-01-27T07:34:55.532Z,-0.200195
2023-01-27T07:36:03.204Z,-0.169983
2023-01-27T07:37:12.848Z,-0.180054
2023-01-27T07:38:22.579Z,-0.149841
2023-01-27T07:39:30.243Z,-0.149841
2023-01-27T07:40:39.948Z,-0.149841
2023-01-27T07:41:48.645Z,-0.169983
2023-01-27T07:42:57.334Z,-0.139771
2023-01-27T07:44:07.076Z,-0.149841
2023-01-27T07:45:14.743Z,-0.149841
2023-01-27T07:46:24.447Z,-0.109558
2023-01-27T07:47:34.249Z,-0.099487
2023-01-27T07:48:42.919Z,-0.059204
2023-01-27T07:49:52.639Z,-0.109558
2023-01-27T07:51:01.317Z,-0.1297
2023-01-27T07:52:11.005Z,-0.1297
2023-01-27T07:53:20.719Z,-0.109558
2023-01-27T07:54:30.497Z,-0.099487
2023-01-27T07:55:40.253Z,-0.079346
2023-01-27T07:56:48.957Z,-0.069275
2023-01-27T07:57:58.657Z,-0.069275
2023-01-27T07:59:08.410Z,-0.079346
2023-01-27T08:00:17.111Z,-0.069275
2023-01-27T08:01:25.793Z,-0.059204
2023-01-27T08:02:35.555Z,-0.059204
2023-01-27T08:03:43.232Z,-0.069275
2023-01-27T08:04:53.813Z,-0.069275
2023-01-27T08:06:02.566Z,-0.059204
2023-01-27T08:07:10.277Z,-0.059204
2023-01-27T08:08:19.990Z,-0.028992
2023-01-27T08:09:28.643Z,-0.028992
2023-01-27T08:10:38.322Z,-0.018921
2023-01-27T08:11:47.996Z,0.001221
2023-01-27T08:12:55.763Z,0.001221
2023-01-27T08:14:05.387Z,0.011292
2023-01-27T08:15:15.141Z,0.031433
2023-01-27T08:16:24.753Z,0.041504
2023-01-27T08:17:34.469Z,0.081787
2023-01-27T08:18:43.152Z,0.101929
2023-01-27T08:19:51.862Z,0.101929
2023-01-27T08:21:01.565Z,0.081787
2023-01-27T08:22:09.238Z,0.071716
2023-01-27T08:23:18.925Z,0.071716
2023-01-27T08:24:27.691Z,0.101929
2023-01-27T08:25:36.554Z,0.071716
2023-01-27T08:26:46.280Z,0.051575
2023-01-27T08:27:54.993Z,0.041504
2023-01-27T08:29:03.682Z,0.041504
2023-01-27T08:30:13.679Z,0.071716
2023-01-27T08:31:22.361Z,0.051575
2023-01-27T08:32:31.930Z,0.071716
2023-01-27T08:33:41.654Z,0.071716
2023-01-27T08:34:51.342Z,0.051575
2023-01-27T08:36:00.048Z,0.081787
2023-01-27T08:37:09.748Z,0.031433
2023-01-27T08:38:18.438Z,0.031433
2023-01-27T08:39:28.131Z,0.011292
2023-01-27T08:40:36.923Z,0.001221
2023-01-27T08:41:45.625Z,0.011292
2023-01-27T08:42:55.315Z,0.031433
2023-01-27T08:44:06.010Z,0.011292
2023-01-27T08:45:15.702Z,0.011292
2023-01-27T08:46:25.452Z,0.011292
2023-01-27T08:47:33.372Z,0.031433
2023-01-27T08:48:43.068Z,0.051575
2023-01-27T08:49:52.767Z,0.041504
2023-01-27T08:51:00.490Z,0.041504
2023-01-27T08:52:10.257Z,0.031433
2023-01-27T08:53:17.949Z,0.011292
2023-01-27T08:54:27.662Z,0.031433
2023-01-27T08:55:37.396Z,0.011292
2023-01-27T08:56:45.064Z,0.011292
2023-01-27T08:57:54.771Z,0.011292
2023-01-27T08:59:03.486Z,0.041504
2023-01-27T09:00:11.424Z,0.071716
2023-01-27T09:01:20.961Z,0.081787
2023-01-27T09:02:28.594Z,0.101929
2023-01-27T09:03:37.290Z,0.12207
2023-01-27T09:04:47.008Z,0.12207
2023-01-27T09:05:55.649Z,0.12207
2023-01-27T09:07:05.353Z,0.12207
2023-01-27T09:08:14.023Z,0.162354
2023-01-27T09:09:23.789Z,0.182495
2023-01-27T09:10:33.512Z,0.212708
2023-01-27T09:11:41.266Z,0.222778
2023-01-27T09:12:49.933Z,0.263062
2023-01-27T09:13:59.659Z,0.283203
2023-01-27T09:15:09.312Z,0.252991
2023-01-27T09:16:19.082Z,0.232849
2023-01-27T09:17:28.709Z,0.182495
2023-01-27T09:18:37.440Z,0.192566
2023-01-27T09:19:47.107Z,0.222778
2023-01-27T09:20:53.775Z,0.263062
2023-01-27T09:22:03.476Z,0.283203
2023-01-27T09:23:13.129Z,0.263062
2023-01-27T09:24:21.879Z,0.263062
2023-01-27T09:25:31.540Z,0.232849
2023-01-27T09:26:41.231Z,0.252991
2023-01-27T09:27:50.979Z,0.252991
2023-01-27T09:29:00.670Z,0.222778
2023-01-27T09:30:08.395Z,0.222778
2023-01-27T09:31:18.226Z,0.283203
2023-01-27T09:32:27.929Z,0.263062
2023-01-27T09:33:36.676Z,0.283203
2023-01-27T09:34:46.444Z,0.293274
2023-01-27T09:35:56.087Z,0.323486
2023-01-27T09:37:04.790Z,0.37384
2023-01-27T09:38:14.534Z,0.434265
2023-01-27T09:39:23.242Z,0.444336
2023-01-27T09:40:31.937Z,0.434265
2023-01-27T09:41:41.624Z,0.444336
2023-01-27T09:42:49.404Z,0.444336
2023-01-27T09:43:59.103Z,0.444336
2023-01-27T09:45:07.831Z,0.464478
2023-01-27T09:46:16.558Z,0.444336
2023-01-27T09:47:26.264Z,0.464478
2023-01-27T09:48:34.019Z,0.474548
2023-01-27T09:49:42.737Z,0.555115
2023-01-27T09:50:52.490Z,0.61554
2023-01-27T09:52:01.175Z,0.655823
2023-01-27T09:53:10.926Z,0.686035
2023-01-27T09:54:20.579Z,0.645752
2023-01-27T09:55:29.248Z,0.645752
2023-01-27T09:56:38.959Z,0.655823
2023-01-27T09:57:47.730Z,0.655823
2023-01-27T09:58:57.419Z,0.696106
2023-01-27T10:00:06.180Z,0.62561
2023-01-27T10:01:13.889Z,0.645752
2023-01-27T10:02:23.611Z,0.675964
2023-01-27T10:03:32.278Z,0.756531
2023-01-27T10:04:42.043Z,0.776672
2023-01-27T10:05:51.641Z,0.796814
2023-01-27T10:07:00.376Z,0.766602
2023-01-27T10:08:09.074Z,0.756531
2023-01-27T10:09:18.809Z,0.686035
2023-01-27T10:10:26.541Z,0.696106
2023-01-27T10:11:36.258Z,0.736389
2023-01-27T10:12:44.988Z,0.696106
2023-01-27T10:13:53.906Z,0.726318
2023-01-27T10:15:02.500Z,0.776672
2023-01-27T10:16:11.264Z,0.827026
2023-01-27T10:17:19.972Z,0.87738
2023-01-27T10:18:29.654Z,0.937805
2023-01-27T10:19:39.355Z,0.937805
2023-01-27T10:20:49.012Z,0.917664
2023-01-27T10:21:59.706Z,0.978088
2023-01-27T10:23:06.420Z,0.947876
2023-01-27T10:24:16.165Z,0.988159
2023-01-27T10:25:25.844Z,0.988159
2023-01-27T10:26:34.572Z,1.008301
2023-01-27T10:27:44.310Z,1.018372
2023-01-27T10:28:52.080Z,1.078796
2023-01-27T10:30:01.778Z,1.12915
2023-01-27T10:31:11.622Z,1.078796
2023-01-27T10:32:21.253Z,1.038513
2023-01-27T10:33:30.092Z,1.058655
2023-01-27T10:34:39.772Z,1.058655
2023-01-27T10:35:48.502Z,1.018372
2023-01-27T10:36:58.257Z,1.038513
2023-01-27T10:38:07.943Z,1.008301
2023-01-27T10:39:15.699Z,1.058655
2023-01-27T10:40:25.385Z,1.12915
2023-01-27T10:41:35.045Z,1.12915
2023-01-27T10:42:44.794Z,1.12915
2023-01-27T10:43:53.484Z,1.058655
2023-01-27T10:45:02.190Z,1.008301
2023-01-27T10:46:11.881Z,1.008301
2023-01-27T10:47:20.564Z,1.038513
2023-01-27T10:48:30.335Z,1.018372
2023-01-27T10:49:40.033Z,1.048584
2023-01-27T10:50:48.738Z,1.11908
2023-01-27T10:51:58.452Z,1.098938
2023-01-27T10:53:08.157Z,1.048584
2023-01-27T10:54:15.919Z,1.038513
2023-01-27T10:55:25.686Z,1.048584
2023-01-27T10:56:35.367Z,1.018372
2023-01-27T10:57:44.073Z,1.098938
2023-01-27T10:58:53.757Z,1.048584
2023-01-27T11:00:33.834Z,0.957947
2023-01-27T11:01:20.689Z,0.917664
2023-01-27T11:02:23.765Z,0.806885
2023-01-27T11:03:31.436Z,0.756531
2023-01-27T11:04:41.135Z,0.736389
2023-01-27T11:05:49.904Z,0.655823
2023-01-27T11:06:58.597Z,0.655823
2023-01-27T11:08:08.297Z,0.62561
2023-01-27T11:09:17.001Z,0.585327
2023-01-27T11:10:26.701Z,0.585327
2023-01-27T11:11:36.435Z,0.555115
2023-01-27T11:12:45.169Z,0.61554
2023-01-27T11:13:54.917Z,0.62561
2023-01-27T11:15:04.585Z,0.62561
2023-01-27T11:16:14.291Z,0.595398
2023-01-27T11:17:24.023Z,0.595398
2023-01-27T11:18:31.716Z,0.61554
2023-01-27T11:19:41.417Z,0.675964
2023-01-27T11:20:52.374Z,0.686035
2023-01-27T11:22:07.445Z,0.696106
2023-01-27T11:23:09.537Z,0.675964
2023-01-27T11:24:19.299Z,0.686035
2023-01-27T11:25:26.954Z,0.736389
2023-01-27T11:26:36.654Z,0.726318
2023-01-27T11:27:45.367Z,0.756531
2023-01-27T11:28:54.071Z,0.756531
2023-01-27T11:30:03.833Z,0.806885
2023-01-27T11:31:13.566Z,0.837097
2023-01-27T11:32:26.429Z,0.837097
2023-01-27T11:33:36.127Z,0.837097
2023-01-27T11:34:44.839Z,0.806885
2023-01-27T11:35:54.530Z,0.756531
2023-01-27T11:37:03.323Z,0.696106
2023-01-27T11:38:15.569Z,0.686035
2023-01-27T11:39:21.658Z,0.675964
2023-01-27T11:40:30.416Z,0.696106
2023-01-27T11:41:40.124Z,0.696106
2023-01-27T11:42:50.500Z,0.696106
2023-01-27T11:43:57.548Z,0.726318
2023-01-27T11:45:07.285Z,0.766602
2023-01-27T11:46:15.064Z,0.806885
2023-01-27T11:47:24.713Z,0.806885
2023-01-27T11:48:34.396Z,0.827026
2023-01-27T11:49:43.202Z,0.776672
2023-01-27T11:50:52.873Z,0.776672
2023-01-27T11:52:02.644Z,0.776672
2023-01-27T11:53:11.355Z,0.766602
2023-01-27T11:54:21.062Z,0.806885
2023-01-27T11:55:30.785Z,0.806885
2023-01-27T11:56:40.468Z,0.837097
2023-01-27T11:57:50.166Z,0.766602
2023-01-27T11:58:57.883Z,0.756531
2023-01-27T12:00:07.570Z,0.736389
2023-01-27T12:01:16.287Z,0.726318
2023-01-27T12:02:26.192Z,0.726318
2023-01-27T12:03:35.922Z,0.696106
2023-01-27T12:04:43.755Z,0.726318
2023-01-27T12:05:52.403Z,0.726318
2023-01-27T12:07:02.117Z,0.756531
2023-01-27T12:08:10.815Z,0.776672
2023-01-27T12:09:20.492Z,0.806885
2023-01-27T12:10:29.183Z,0.827026
2023-01-27T12:11:37.866Z,0.87738
2023-01-27T12:12:47.538Z,0.857239
2023-01-27T12:13:57.246Z,0.806885
2023-01-27T12:15:06.974Z,0.796814
2023-01-27T12:16:16.714Z,0.776672
2023-01-27T12:17:25.326Z,0.796814
2023-01-27T12:18:35.041Z,0.806885
2023-01-27T12:19:43.736Z,0.827026
2023-01-27T12:20:52.473Z,0.766602
2023-01-27T12:22:02.176Z,0.806885
2023-01-27T12:23:09.915Z,0.827026
2023-01-27T12:24:18.696Z,0.806885
2023-01-27T12:25:28.317Z,0.806885
2023-01-27T12:26:37.031Z,0.827026
2023-01-27T12:27:46.836Z,0.806885
2023-01-27T12:28:56.529Z,0.806885
2023-01-27T12:30:05.241Z,0.827026
2023-01-27T12:31:14.193Z,0.827026
2023-01-27T12:32:23.694Z,0.806885
2023-01-27T12:33:33.414Z,0.857239
2023-01-27T12:34:43.101Z,0.87738
2023-01-27T12:35:52.795Z,0.947876
2023-01-27T12:37:01.477Z,0.957947
2023-01-27T12:38:11.207Z,0.937805
2023-01-27T12:39:19.893Z,0.917664
2023-01-27T12:40:29.630Z,0.86731
2023-01-27T12:41:39.298Z,0.827026
2023-01-27T12:42:46.983Z,0.806885
2023-01-27T12:43:56.716Z,0.756531
2023-01-27T12:45:06.444Z,0.756531
2023-01-27T12:46:15.198Z,0.686035
2023-01-27T12:47:24.876Z,0.675964
2023-01-27T12:48:34.577Z,0.645752
2023-01-27T12:49:43.262Z,0.61554
2023-01-27T12:50:52.946Z,0.595398
2023-01-27T12:52:02.633Z,0.595398
2023-01-27T12:53:12.294Z,0.585327
2023-01-27T12:54:20.978Z,0.575256
2023-01-27T12:55:29.725Z,0.555115
2023-01-27T12:56:39.363Z,0.545044
2023-01-27T12:57:48.108Z,0.585327
2023-01-27T12:58:56.777Z,0.595398
2023-01-27T13:00:06.460Z,0.595398
2023-01-27T13:01:16.183Z,0.585327
2023-01-27T13:02:24.889Z,0.575256
2023-01-27T13:03:33.667Z,0.585327
2023-01-27T13:04:42.299Z,0.585327
2023-01-27T13:05:51.996Z,0.645752
2023-01-27T13:07:00.772Z,0.655823
2023-01-27T13:08:09.486Z,0.686035
2023-01-27T13:09:19.213Z,0.696106
2023-01-27T13:10:28.947Z,0.756531
2023-01-27T13:11:38.699Z,0.736389
2023-01-27T13:12:48.431Z,0.796814
2023-01-27T13:13:58.236Z,0.837097
2023-01-27T13:15:08.210Z,0.86731
2023-01-27T13:16:16.892Z,0.87738
2023-01-27T13:17:25.562Z,0.917664
2023-01-27T13:18:34.257Z,0.957947
2023-01-27T13:19:42.971Z,0.978088
2023-01-27T13:20:52.631Z,1.008301
2023-01-27T13:22:02.325Z,1.058655
2023-01-27T13:23:11.025Z,1.078796
2023-01-27T13:24:19.786Z,1.058655
2023-01-27T13:25:27.396Z,1.048584